Impacts METAR Board INFO
IDs:

KIAH - Houston/Bush Intl, TX, US

Updated at: 1512 UTC 16 Jan 2018
Potential Impact None Slight Moderate High
Time16/03Z 16/04Z 16/05Z 16/06Z 16/07Z 16/08Z 16/09Z 16/10Z 16/11Z 16/12Z 16/13Z 16/14Z 16/15Z
VIS10 10 10 10 10 5 6 5 5 7 3 3 1
CIG45 95 95 55 42 6 7 13 8 8 10 11 13
CoverOVCBKNBKNBKNOVCOVCOVCOVCOVCOVCOVCOVCOVC
FltCatVFRVFRVFRVFRVFRIFRIFRMVFRIFRIFRMVFRMVFRIFR
WX---------RARA BR-RA BRRA BR-RA BR-RA-SN BR-SN -PL BR-FZRA PL BR
WDir14014012014036034035035035036036010350
WSpd9 11 7 8 9 13 18 16 13 19 20 19 15
WGst-- -- -- -- -- -- -- 23 -- 31 26 27 24
Raw hourly METARs
KIAH 160253Z 14009KT 10SM BKN045 OVC095 13/08 A3031 RMK AO2 RAB25E38 SLP266 P0000 60000 T01280083 51011 $
KIAH 160353Z 14011KT 10SM SCT055 SCT075 BKN095 BKN250 13/08 A3032 RMK AO2 SLP268 T01280083 $
KIAH 160453Z 12007KT 10SM FEW050 BKN095 12/09 A3030 RMK AO2 SLP261 T01220089 $
KIAH 160553Z 14008KT 10SM BKN055 BKN100 11/09 A3031 RMK AO2 SLP264 60000 T01110094 10150 20111 401940011 55001 $
KIAH 160653Z 36009KT 10SM -RA SCT013 BKN042 OVC100 12/10 A3034 RMK AO2 RAB47 SLP274 P0000 T01220100 $
KIAH 160753Z 34013KT 5SM RA BR BKN006 OVC016 11/11 A3038 RMK AO2 SLP286 P0005 T01110106 $
KIAH 160853Z 35018KT 6SM -RA BR BKN007 OVC012 07/06 A3042 RMK AO2 PK WND 35027/0840 SLP301 P0007 60012 T00720061 53037 $
KIAH 160953Z 35016G23KT 5SM RA BR SCT008 BKN013 OVC026 04/03 A3046 RMK AO2 PK WND 36026/0918 SLP315 P0003 T00390033 $
KIAH 161053Z 35013KT 5SM -RA BR BKN008 OVC014 02/01 A3049 RMK AO2 PK WND 35026/1039 SNB32E42 SLP327 P0001 T00220011 $
KIAH 161153Z 36019G31KT 7SM -RA BKN008 BKN014 OVC021 01/M01 A3053 RMK AO2 PK WND 36031/1149 RAE1058B14SNB1058E14 SLP339 P0001 60017 70017 T00061006 10122 20006 51037 $
KIAH 161253Z 36020G26KT 3SM -SN BR FEW007 BKN010 OVC020 00/M01 A3056 RMK AO2 PK WND 34032/1216 RAE14DZB14E29SNB29 SLP348 P0000 I1002 T00001011 $
KIAH 161353Z 01019G27KT 3SM -SNPL BR SCT007 OVC011 M01/M02 A3059 RMK AO2 PK WND 36027/1330 SNE13B41PLB41 SLP359 P0001 I1000 T10111022 $
KIAH 161453Z 35015G24KT 1SM -FZRAPL BR SCT007 OVC013 M01/M02 A3063 RMK AO2 PK WND 01031/1416 TWR VIS 1 1/4 FZDZB17E36FZRAB36SNE36 SLP371 P0000 60001 I1000 I3002 T10111022 53033 $